createdAt,value
2023-02-18T00:00:04.274Z,0.66
2023-02-18T00:01:04.273Z,0.67
2023-02-18T00:02:04.334Z,0.67
2023-02-18T00:03:04.291Z,0.67
2023-02-18T00:04:04.281Z,0.66
2023-02-18T00:05:04.282Z,0.67
2023-02-18T00:06:04.287Z,0.67
2023-02-18T00:07:04.291Z,0.67
2023-02-18T00:08:04.306Z,0.67
2023-02-18T00:09:04.331Z,0.66
2023-02-18T00:10:04.314Z,0.67
2023-02-18T00:11:04.316Z,0.66
2023-02-18T00:12:04.324Z,0.67
2023-02-18T00:13:04.322Z,0.68
2023-02-18T00:14:04.330Z,0.67
2023-02-18T00:15:04.333Z,0.67
2023-02-18T00:16:04.363Z,0.66
2023-02-18T00:17:04.335Z,0.67
2023-02-18T00:18:04.334Z,0.67
2023-02-18T00:19:04.332Z,0.67
2023-02-18T00:20:04.354Z,0.64
2023-02-18T00:21:04.359Z,0.62
2023-02-18T00:22:04.344Z,0.65
2023-02-18T00:23:04.348Z,0.66
2023-02-18T00:24:04.351Z,0.67
2023-02-18T00:25:04.360Z,0.66
2023-02-18T00:26:04.381Z,0.64
2023-02-18T00:27:04.353Z,0.64
2023-02-18T00:28:04.378Z,0.65
2023-02-18T00:29:04.381Z,0.66
2023-02-18T00:30:04.453Z,0.67
2023-02-18T00:31:04.489Z,0.63
2023-02-18T00:32:04.407Z,0.62
2023-02-18T00:33:04.376Z,0.63
2023-02-18T00:34:04.377Z,0.64
2023-02-18T00:35:04.381Z,0.66
2023-02-18T00:36:04.385Z,0.63
2023-02-18T00:37:04.387Z,0.61
2023-02-18T00:38:04.384Z,0.64
2023-02-18T00:39:04.399Z,0.64
2023-02-18T00:40:04.385Z,0.65
2023-02-18T00:41:04.390Z,0.64
2023-02-18T00:42:04.394Z,0.64
2023-02-18T00:43:04.386Z,0.62
2023-02-18T00:44:04.396Z,0.65
2023-02-18T00:45:04.399Z,0.64
2023-02-18T00:46:04.430Z,0.64
2023-02-18T00:47:04.400Z,0.63
2023-02-18T00:48:04.389Z,0.62
2023-02-18T00:49:04.389Z,0.61
2023-02-18T00:50:04.388Z,0.61
2023-02-18T00:51:04.386Z,0.64
2023-02-18T00:52:04.388Z,0.64
2023-02-18T00:53:04.392Z,0.62
2023-02-18T00:54:04.380Z,0.61
2023-02-18T00:55:04.374Z,0.60
2023-02-18T00:56:04.376Z,0.63
2023-02-18T00:57:04.380Z,0.64
2023-02-18T00:58:04.384Z,0.63
2023-02-18T00:59:04.380Z,0.64
2023-02-18T01:00:04.385Z,0.61
2023-02-18T01:01:07.084Z,0.63
2023-02-18T01:02:04.389Z,0.65
2023-02-18T01:03:04.378Z,0.65
2023-02-18T01:04:04.376Z,0.63
2023-02-18T01:05:04.477Z,0.62
2023-02-18T01:06:04.373Z,0.62
2023-02-18T01:07:04.382Z,0.62
2023-02-18T01:08:04.373Z,0.63
2023-02-18T01:09:04.381Z,0.64
2023-02-18T01:10:04.360Z,0.61
2023-02-18T01:11:04.370Z,0.59
2023-02-18T01:12:04.375Z,0.61
2023-02-18T01:13:04.369Z,0.62
2023-02-18T01:14:04.369Z,0.64
2023-02-18T01:15:04.378Z,0.63
2023-02-18T01:16:04.398Z,0.61
2023-02-18T01:17:04.403Z,0.61
2023-02-18T01:18:04.384Z,0.61
2023-02-18T01:19:04.406Z,0.64
2023-02-18T01:20:04.403Z,0.64
2023-02-18T01:21:04.408Z,0.63
2023-02-18T01:22:04.491Z,0.61
2023-02-18T01:23:04.420Z,0.63
2023-02-18T01:24:04.416Z,0.64
2023-02-18T01:25:04.414Z,0.65
2023-02-18T01:26:04.475Z,0.64
2023-02-18T01:27:04.423Z,0.62
2023-02-18T01:28:04.443Z,0.61
2023-02-18T01:29:04.434Z,0.63
2023-02-18T01:30:04.472Z,0.64
2023-02-18T01:31:04.541Z,0.65
2023-02-18T01:32:04.517Z,0.64
2023-02-18T01:33:04.446Z,0.63
2023-02-18T01:34:04.448Z,0.63
2023-02-18T01:35:04.453Z,0.64
2023-02-18T01:36:04.453Z,0.65
2023-02-18T01:37:04.452Z,0.66
2023-02-18T01:38:04.451Z,0.62
2023-02-18T01:39:04.449Z,0.59
2023-02-18T01:40:04.433Z,0.61
2023-02-18T01:41:04.441Z,0.63
2023-02-18T01:42:04.449Z,0.65
2023-02-18T01:43:04.450Z,0.65
2023-02-18T01:44:04.458Z,0.60
2023-02-18T01:45:04.452Z,0.59
2023-02-18T01:46:04.452Z,0.62
2023-02-18T01:47:04.444Z,0.64
2023-02-18T01:48:04.450Z,0.65
2023-02-18T01:49:04.432Z,0.64
2023-02-18T01:50:04.428Z,0.62
2023-02-18T01:51:04.429Z,0.62
2023-02-18T01:52:04.428Z,0.65
2023-02-18T01:53:04.439Z,0.64
2023-02-18T01:54:04.429Z,0.65
2023-02-18T01:55:04.433Z,0.63
2023-02-18T01:56:04.432Z,0.62
2023-02-18T01:57:04.453Z,0.64
2023-02-18T01:58:04.442Z,0.63
2023-02-18T01:59:04.440Z,0.64
2023-02-18T02:00:04.438Z,0.64
2023-02-18T02:01:04.491Z,0.63
2023-02-18T02:02:04.461Z,0.62
2023-02-18T02:03:04.440Z,0.65
2023-02-18T02:04:04.445Z,0.64
2023-02-18T02:05:04.449Z,0.65
2023-02-18T02:06:04.428Z,0.66
2023-02-18T02:07:04.424Z,0.63
2023-02-18T02:08:04.419Z,0.63
2023-02-18T02:09:04.417Z,0.64
2023-02-18T02:10:04.415Z,0.65
2023-02-18T02:11:04.419Z,0.64
2023-02-18T02:12:04.425Z,0.63
2023-02-18T02:13:04.419Z,0.62
2023-02-18T02:14:04.415Z,0.63
2023-02-18T02:15:04.430Z,0.65
2023-02-18T02:16:04.448Z,0.65
2023-02-18T02:17:04.428Z,0.62
2023-02-18T02:18:04.430Z,0.63
2023-02-18T02:19:04.421Z,0.63
2023-02-18T02:20:04.427Z,0.63
2023-02-18T02:21:04.426Z,0.63
2023-02-18T02:22:04.410Z,0.64
2023-02-18T02:23:04.417Z,0.62
2023-02-18T02:24:04.412Z,0.61
2023-02-18T02:25:04.413Z,0.61
2023-02-18T02:26:04.414Z,0.62
2023-02-18T02:27:06.623Z,0.62
2023-02-18T02:28:04.476Z,0.61
2023-02-18T02:29:04.464Z,0.61
2023-02-18T02:30:04.473Z,0.60
2023-02-18T02:31:04.570Z,0.62
2023-02-18T02:32:04.449Z,0.64
2023-02-18T02:33:04.455Z,0.64
2023-02-18T02:34:04.452Z,0.62
2023-02-18T02:35:04.435Z,0.62
2023-02-18T02:36:04.430Z,0.62
2023-02-18T02:37:04.448Z,0.63
2023-02-18T02:38:04.422Z,0.62
2023-02-18T02:39:04.413Z,0.65
2023-02-18T02:40:04.420Z,0.62
2023-02-18T02:41:04.417Z,0.62
2023-02-18T02:42:04.419Z,0.62
2023-02-18T02:43:04.433Z,0.62
2023-02-18T02:44:04.431Z,0.62
2023-02-18T02:45:04.434Z,0.62
2023-02-18T02:46:04.548Z,0.62
2023-02-18T02:47:04.430Z,0.62
2023-02-18T02:48:04.429Z,0.63
2023-02-18T02:49:04.448Z,0.65
2023-02-18T02:50:04.425Z,0.64
2023-02-18T02:51:04.434Z,0.63
2023-02-18T02:52:04.442Z,0.63
2023-02-18T02:53:04.431Z,0.62
2023-02-18T02:54:04.427Z,0.62
2023-02-18T02:55:04.425Z,0.65
2023-02-18T02:56:04.423Z,0.66
2023-02-18T02:57:04.445Z,0.63
2023-02-18T02:58:04.419Z,0.63
2023-02-18T02:59:04.424Z,0.61
2023-02-18T03:00:04.405Z,0.63
2023-02-18T03:01:04.433Z,0.64
2023-02-18T03:02:04.401Z,0.65
2023-02-18T03:03:04.454Z,0.59
2023-02-18T03:04:04.438Z,0.58
2023-02-18T03:05:04.407Z,0.61
2023-02-18T03:06:04.403Z,0.63
2023-02-18T03:07:04.393Z,0.63
2023-02-18T03:08:04.393Z,0.63
2023-02-18T03:09:04.397Z,0.61
2023-02-18T03:10:04.395Z,0.61
2023-02-18T03:11:04.408Z,0.63
2023-02-18T03:12:04.388Z,0.64
2023-02-18T03:13:04.417Z,0.63
2023-02-18T03:14:04.391Z,0.61
2023-02-18T03:15:04.402Z,0.61
2023-02-18T03:16:04.418Z,0.60
2023-02-18T03:17:04.408Z,0.62
2023-02-18T03:18:04.394Z,0.62
2023-02-18T03:19:04.400Z,0.62
2023-02-18T03:20:04.397Z,0.61
2023-02-18T03:21:04.401Z,0.60
2023-02-18T03:22:04.376Z,0.62
2023-02-18T03:23:04.376Z,0.64
2023-02-18T03:24:04.386Z,0.63
2023-02-18T03:25:04.376Z,0.61
2023-02-18T03:26:04.376Z,0.60
2023-02-18T03:27:04.376Z,0.59
2023-02-18T03:28:04.394Z,0.62
2023-02-18T03:29:04.362Z,0.62
2023-02-18T03:30:04.386Z,0.63
2023-02-18T03:31:04.398Z,0.62
2023-02-18T03:32:04.376Z,0.61
2023-02-18T03:33:04.358Z,0.63
2023-02-18T03:34:04.358Z,0.64
2023-02-18T03:35:04.358Z,0.64
2023-02-18T03:36:04.360Z,0.64
2023-02-18T03:37:04.358Z,0.60
2023-02-18T03:38:04.364Z,0.61
2023-02-18T03:39:04.344Z,0.62
2023-02-18T03:40:04.340Z,0.62
2023-02-18T03:41:04.338Z,0.62
2023-02-18T03:42:04.333Z,0.62
2023-02-18T03:43:04.358Z,0.62
2023-02-18T03:44:04.331Z,0.62
2023-02-18T03:45:04.349Z,0.63
2023-02-18T03:46:04.427Z,0.63
2023-02-18T03:47:04.339Z,0.64
2023-02-18T03:48:04.318Z,0.63
2023-02-18T03:49:04.320Z,0.63
2023-02-18T03:50:04.320Z,0.64
2023-02-18T03:51:04.314Z,0.64
2023-02-18T03:52:04.317Z,0.64
2023-02-18T03:53:04.321Z,0.64
2023-02-18T03:54:04.313Z,0.64
2023-02-18T03:55:04.328Z,0.64
2023-02-18T03:56:04.314Z,0.63
2023-02-18T03:57:04.327Z,0.65
2023-02-18T03:58:04.299Z,0.66
2023-02-18T03:59:04.337Z,0.66
2023-02-18T04:00:04.294Z,0.64
2023-02-18T04:01:04.311Z,0.62
2023-02-18T04:02:04.292Z,0.63
2023-02-18T04:03:04.301Z,0.65
2023-02-18T04:04:04.332Z,0.64
2023-02-18T04:05:04.293Z,0.64
2023-02-18T04:06:04.293Z,0.65
2023-02-18T04:07:04.285Z,0.64
2023-02-18T04:08:04.282Z,0.63
2023-02-18T04:09:04.289Z,0.66
2023-02-18T04:10:04.302Z,0.65
2023-02-18T04:11:04.306Z,0.65
2023-02-18T04:12:04.311Z,0.64
2023-02-18T04:13:04.304Z,0.64
2023-02-18T04:14:04.297Z,0.63
2023-02-18T04:15:04.288Z,0.65
2023-02-18T04:16:04.330Z,0.66
2023-02-18T04:17:04.293Z,0.67
2023-02-18T04:18:04.290Z,0.63
2023-02-18T04:19:04.298Z,0.64
2023-02-18T04:20:04.323Z,0.62
2023-02-18T04:21:04.295Z,0.63
2023-02-18T04:22:04.298Z,0.64
2023-02-18T04:23:04.292Z,0.63
2023-02-18T04:24:04.293Z,0.63
2023-02-18T04:25:04.299Z,0.65
2023-02-18T04:26:04.317Z,0.62
2023-02-18T04:27:04.295Z,0.62
2023-02-18T04:28:04.293Z,0.65
2023-02-18T04:29:04.328Z,0.66
2023-02-18T04:30:04.342Z,0.66
2023-02-18T04:31:04.414Z,0.64
2023-02-18T04:32:04.311Z,0.65
2023-02-18T04:33:04.308Z,0.65
2023-02-18T04:34:04.305Z,0.65
2023-02-18T04:35:04.289Z,0.65
2023-02-18T04:36:04.289Z,0.64
2023-02-18T04:37:04.275Z,0.63
2023-02-18T04:38:04.280Z,0.63
2023-02-18T04:39:04.281Z,0.64
2023-02-18T04:40:04.269Z,0.65
2023-02-18T04:41:04.270Z,0.67
2023-02-18T04:42:04.258Z,0.64
2023-02-18T04:43:04.254Z,0.63
2023-02-18T04:44:04.259Z,0.65
2023-02-18T04:45:04.260Z,0.65
2023-02-18T04:46:04.333Z,0.66
2023-02-18T04:47:04.262Z,0.66
2023-02-18T04:48:04.265Z,0.63
2023-02-18T04:49:04.283Z,0.62
2023-02-18T04:50:04.280Z,0.62
2023-02-18T04:51:04.272Z,0.65
2023-02-18T04:52:04.269Z,0.64
2023-02-18T04:53:04.286Z,0.65
2023-02-18T04:54:04.276Z,0.63
2023-02-18T04:55:04.278Z,0.63
2023-02-18T04:56:04.300Z,0.62
2023-02-18T04:57:04.273Z,0.63
2023-02-18T04:58:04.268Z,0.64
2023-02-18T04:59:04.277Z,0.64
2023-02-18T05:00:04.275Z,0.64
2023-02-18T05:01:04.307Z,0.63
2023-02-18T05:02:04.289Z,0.63
2023-02-18T05:03:04.277Z,0.64
2023-02-18T05:04:04.330Z,0.65
2023-02-18T05:05:04.291Z,0.64
2023-02-18T05:06:04.271Z,0.63
2023-02-18T05:07:04.270Z,0.64
2023-02-18T05:08:04.271Z,0.63
2023-02-18T05:09:04.263Z,0.64
2023-02-18T05:10:04.260Z,0.65
2023-02-18T05:11:04.260Z,0.63
2023-02-18T05:12:04.256Z,0.63
2023-02-18T05:13:04.234Z,0.64
2023-02-18T05:14:04.238Z,0.64
2023-02-18T05:15:04.248Z,0.64
2023-02-18T05:16:04.292Z,0.65
2023-02-18T05:17:04.225Z,0.63
2023-02-18T05:18:04.219Z,0.64
2023-02-18T05:19:04.205Z,0.63
2023-02-18T05:20:04.205Z,0.64
2023-02-18T05:21:04.203Z,0.65
2023-02-18T05:22:04.213Z,0.65
2023-02-18T05:23:04.209Z,0.63
2023-02-18T05:24:04.210Z,0.63
2023-02-18T05:25:04.236Z,0.63
2023-02-18T05:26:04.216Z,0.64
2023-02-18T05:27:04.220Z,0.64
2023-02-18T05:28:04.217Z,0.63
2023-02-18T05:29:04.197Z,0.62
2023-02-18T05:30:04.206Z,0.62
2023-02-18T05:31:04.349Z,0.63
2023-02-18T05:32:04.275Z,0.62
2023-02-18T05:33:04.201Z,0.65
2023-02-18T05:34:04.207Z,0.63
2023-02-18T05:35:04.208Z,0.61
2023-02-18T05:36:04.200Z,0.62
2023-02-18T05:37:04.208Z,0.64
2023-02-18T05:38:04.220Z,0.65
2023-02-18T05:39:04.198Z,0.65
2023-02-18T05:40:04.218Z,0.62
2023-02-18T05:41:04.198Z,0.65
2023-02-18T05:42:04.202Z,0.64
2023-02-18T05:43:04.205Z,0.64
2023-02-18T05:44:04.206Z,0.66
2023-02-18T05:45:04.218Z,0.66
2023-02-18T05:46:04.309Z,0.65
2023-02-18T05:47:04.220Z,0.65
2023-02-18T05:48:04.223Z,0.66
2023-02-18T05:49:04.221Z,0.66
2023-02-18T05:50:04.225Z,0.66
2023-02-18T05:51:04.214Z,0.65
2023-02-18T05:52:04.220Z,0.64
2023-02-18T05:53:04.231Z,0.64
2023-02-18T05:54:04.225Z,0.66
2023-02-18T05:55:04.232Z,0.64
2023-02-18T05:56:04.228Z,0.65
2023-02-18T05:57:04.238Z,0.65
2023-02-18T05:58:04.224Z,0.65
2023-02-18T05:59:04.246Z,0.64
2023-02-18T06:00:04.226Z,0.66
2023-02-18T06:01:04.237Z,0.66
2023-02-18T06:02:04.242Z,0.66
2023-02-18T06:03:04.237Z,0.64
2023-02-18T06:04:04.240Z,0.65
2023-02-18T06:05:04.247Z,0.65
2023-02-18T06:06:04.286Z,0.65
2023-02-18T06:07:04.244Z,0.65
2023-02-18T06:08:04.243Z,0.66
2023-02-18T06:09:04.238Z,0.64
2023-02-18T06:10:04.268Z,0.63
2023-02-18T06:11:04.241Z,0.65
2023-02-18T06:12:04.253Z,0.66
2023-02-18T06:13:04.268Z,0.64
2023-02-18T06:14:04.248Z,0.64
2023-02-18T06:15:04.252Z,0.62
2023-02-18T06:16:04.258Z,0.63
2023-02-18T06:17:04.254Z,0.63
2023-02-18T06:18:04.258Z,0.64
2023-02-18T06:19:04.256Z,0.65
2023-02-18T06:20:04.257Z,0.65
2023-02-18T06:21:04.260Z,0.64
2023-02-18T06:22:04.249Z,0.66
2023-02-18T06:23:04.251Z,0.65
2023-02-18T06:24:04.245Z,0.65
2023-02-18T06:25:04.230Z,0.65
2023-02-18T06:26:04.235Z,0.63
2023-02-18T06:27:04.230Z,0.64
2023-02-18T06:28:04.236Z,0.64
2023-02-18T06:29:04.255Z,0.65
2023-02-18T06:30:04.264Z,0.66
2023-02-18T06:31:04.312Z,0.64
2023-02-18T06:32:04.316Z,0.63
2023-02-18T06:33:04.229Z,0.64
2023-02-18T06:34:04.233Z,0.65
2023-02-18T06:35:04.219Z,0.64
2023-02-18T06:36:04.225Z,0.64
2023-02-18T06:37:04.218Z,0.66
2023-02-18T06:38:04.218Z,0.66
2023-02-18T06:39:04.234Z,0.65
2023-02-18T06:40:04.221Z,0.66
2023-02-18T06:41:04.214Z,0.66
2023-02-18T06:42:04.223Z,0.65
2023-02-18T06:43:04.214Z,0.64
2023-02-18T06:44:04.225Z,0.66
2023-02-18T06:45:04.224Z,0.65
2023-02-18T06:46:04.223Z,0.66
2023-02-18T06:47:04.209Z,0.67
2023-02-18T06:48:04.220Z,0.65
2023-02-18T06:49:04.221Z,0.64
2023-02-18T06:50:04.224Z,0.63
2023-02-18T06:51:04.235Z,0.63
2023-02-18T06:52:04.221Z,0.65
2023-02-18T06:53:04.227Z,0.65
2023-02-18T06:54:04.239Z,0.66
2023-02-18T06:55:04.224Z,0.64
2023-02-18T06:56:04.238Z,0.64
2023-02-18T06:57:04.243Z,0.63
2023-02-18T06:58:04.230Z,0.65
2023-02-18T06:59:04.230Z,0.64
2023-02-18T07:00:04.231Z,0.63
2023-02-18T07:01:04.314Z,0.63
2023-02-18T07:02:04.233Z,0.65
2023-02-18T07:03:04.232Z,0.65
2023-02-18T07:04:04.307Z,0.65
2023-02-18T07:05:04.228Z,0.65
2023-02-18T07:06:04.232Z,0.65
2023-02-18T07:07:04.225Z,0.65
2023-02-18T07:08:04.223Z,0.65
2023-02-18T07:09:04.212Z,0.65
2023-02-18T07:10:04.215Z,0.65
2023-02-18T07:11:04.204Z,0.65
2023-02-18T07:12:04.196Z,0.66
2023-02-18T07:13:04.208Z,0.65
2023-02-18T07:14:04.196Z,0.64
2023-02-18T07:15:04.229Z,0.65
2023-02-18T07:16:04.221Z,0.66
2023-02-18T07:17:04.185Z,0.66
2023-02-18T07:18:04.177Z,0.65
2023-02-18T07:19:04.171Z,0.64
2023-02-18T07:20:04.177Z,0.65
2023-02-18T07:21:04.170Z,0.66
2023-02-18T07:22:04.172Z,0.66
2023-02-18T07:23:04.176Z,0.66
2023-02-18T07:24:04.183Z,0.65
2023-02-18T07:25:04.192Z,0.64
2023-02-18T07:26:04.174Z,0.65
2023-02-18T07:27:04.178Z,0.66
2023-02-18T07:28:04.178Z,0.67
2023-02-18T07:29:04.190Z,0.65
2023-02-18T07:30:04.222Z,0.65
2023-02-18T07:31:04.220Z,0.65
2023-02-18T07:32:04.207Z,0.66
2023-02-18T07:33:04.187Z,0.68
2023-02-18T07:34:04.197Z,0.67
2023-02-18T07:35:04.217Z,0.65
2023-02-18T07:36:04.206Z,0.64
2023-02-18T07:37:04.206Z,0.66
2023-02-18T07:38:04.204Z,0.66
2023-02-18T07:39:04.205Z,0.66
2023-02-18T07:40:04.225Z,0.65
2023-02-18T07:41:04.206Z,0.65
2023-02-18T07:42:04.211Z,0.66
2023-02-18T07:43:04.207Z,0.66
2023-02-18T07:44:04.207Z,0.67
2023-02-18T07:45:04.211Z,0.66
2023-02-18T07:46:04.248Z,0.67
2023-02-18T07:47:04.200Z,0.67
2023-02-18T07:48:04.198Z,0.65
2023-02-18T07:49:04.207Z,0.66
2023-02-18T07:50:04.215Z,0.67
2023-02-18T07:51:04.212Z,0.68
2023-02-18T07:52:05.446Z,0.66
2023-02-18T07:53:04.184Z,0.66
2023-02-18T07:54:04.187Z,0.66
2023-02-18T07:55:04.188Z,0.66
2023-02-18T07:56:04.182Z,0.66
2023-02-18T07:57:04.187Z,0.68
2023-02-18T07:58:04.165Z,0.66
2023-02-18T07:59:04.170Z,0.65
2023-02-18T08:00:04.159Z,0.66
2023-02-18T08:01:04.141Z,0.67
2023-02-18T08:02:04.186Z,0.66
2023-02-18T08:03:04.134Z,0.66
2023-02-18T08:04:04.245Z,0.65
2023-02-18T08:05:04.127Z,0.65
2023-02-18T08:06:04.121Z,0.65
2023-02-18T08:07:04.108Z,0.66
2023-02-18T08:08:04.100Z,0.66
2023-02-18T08:09:04.072Z,0.66
2023-02-18T08:10:04.076Z,0.65
2023-02-18T08:11:13.259Z,0.65
2023-02-18T08:12:05.040Z,0.65
2023-02-18T08:13:04.051Z,0.65
2023-02-18T08:14:04.017Z,0.66
2023-02-18T08:15:04.017Z,0.66
2023-02-18T08:16:03.994Z,0.66
2023-02-18T08:17:03.988Z,0.66
2023-02-18T08:18:03.968Z,0.66
2023-02-18T08:19:03.961Z,0.64
2023-02-18T08:20:03.944Z,0.65
2023-02-18T08:21:03.932Z,0.65
2023-02-18T08:22:03.927Z,0.66
2023-02-18T08:23:03.899Z,0.65
2023-02-18T08:24:03.910Z,0.67
2023-02-18T08:25:03.879Z,0.66
2023-02-18T08:26:03.856Z,0.67
2023-02-18T08:27:03.842Z,0.66
2023-02-18T08:28:03.820Z,0.65
2023-02-18T08:29:03.809Z,0.66
2023-02-18T08:30:03.820Z,0.67
2023-02-18T08:31:03.830Z,0.67
2023-02-18T08:32:03.781Z,0.67
2023-02-18T08:33:03.732Z,0.68
2023-02-18T08:34:03.738Z,0.69
2023-02-18T08:35:03.711Z,0.68
2023-02-18T08:36:03.666Z,0.68
2023-02-18T08:37:03.653Z,0.69
2023-02-18T08:38:03.636Z,0.68
2023-02-18T08:39:03.611Z,0.68
2023-02-18T08:40:03.601Z,0.68
2023-02-18T08:41:03.569Z,0.69
2023-02-18T08:42:03.552Z,0.68
2023-02-18T08:43:03.532Z,0.70
2023-02-18T08:44:03.489Z,0.69
2023-02-18T08:45:03.455Z,0.70
2023-02-18T08:46:03.511Z,0.70
2023-02-18T08:47:03.421Z,0.69
2023-02-18T08:48:16.043Z,0.71
2023-02-18T08:49:04.386Z,0.71
2023-02-18T08:50:03.379Z,0.71
2023-02-18T08:51:03.329Z,0.71
2023-02-18T08:52:03.308Z,0.71
2023-02-18T08:53:03.282Z,0.71
2023-02-18T08:54:03.266Z,0.72
2023-02-18T08:55:03.243Z,0.71
2023-02-18T08:56:03.217Z,0.72
2023-02-18T08:57:03.196Z,0.71
2023-02-18T08:58:03.163Z,0.71
2023-02-18T08:59:03.145Z,0.72
2023-02-18T09:00:03.150Z,0.73
2023-02-18T09:01:03.156Z,0.72
2023-02-18T09:02:03.074Z,0.72
2023-02-18T09:03:03.058Z,0.73
2023-02-18T09:04:03.046Z,0.71
2023-02-18T09:05:03.010Z,0.71
2023-02-18T09:06:02.988Z,0.73
2023-02-18T09:07:02.959Z,0.73
2023-02-18T09:08:02.942Z,0.72
2023-02-18T09:09:02.916Z,0.72
2023-02-18T09:10:02.890Z,0.73
2023-02-18T09:11:02.884Z,0.71
2023-02-18T09:12:02.850Z,0.72
2023-02-18T09:13:02.815Z,0.71
2023-02-18T09:14:02.796Z,0.72
2023-02-18T09:15:02.762Z,0.73
2023-02-18T09:16:02.754Z,0.72
2023-02-18T09:17:02.702Z,0.72
2023-02-18T09:18:02.679Z,0.71
2023-02-18T09:19:02.661Z,0.71
2023-02-18T09:20:02.630Z,0.72
2023-02-18T09:21:02.586Z,0.72
2023-02-18T09:22:02.566Z,0.71
2023-02-18T09:23:02.537Z,0.72
2023-02-18T09:24:02.505Z,0.71
2023-02-18T09:25:02.491Z,0.73
2023-02-18T09:26:02.457Z,0.71
2023-02-18T09:27:02.430Z,0.73
2023-02-18T09:28:02.389Z,0.72
2023-02-18T09:29:02.368Z,0.72
2023-02-18T09:30:02.435Z,0.73
2023-02-18T09:31:02.341Z,0.71
2023-02-18T09:32:02.317Z,0.71
2023-02-18T09:33:02.247Z,0.73
2023-02-18T09:34:02.228Z,0.73
2023-02-18T09:35:02.208Z,0.73
2023-02-18T09:36:02.170Z,0.74
2023-02-18T09:37:02.137Z,0.74
2023-02-18T09:38:02.098Z,0.73
2023-02-18T09:39:02.067Z,0.72
2023-02-18T09:40:02.036Z,0.72
2023-02-18T09:41:02.047Z,0.72
2023-02-18T09:42:01.981Z,0.73
2023-02-18T09:43:01.953Z,0.72
2023-02-18T09:44:01.926Z,0.71
2023-02-18T09:45:01.921Z,0.72
2023-02-18T09:46:01.913Z,0.72
2023-02-18T09:47:01.859Z,0.72
2023-02-18T09:48:01.867Z,0.73
2023-02-18T09:49:01.811Z,0.72
2023-02-18T09:50:01.819Z,0.70
2023-02-18T09:51:01.768Z,0.72
2023-02-18T09:52:01.727Z,0.72
2023-02-18T09:53:01.712Z,0.72
2023-02-18T09:54:01.683Z,0.71
2023-02-18T09:55:01.647Z,0.71
2023-02-18T09:56:01.615Z,0.71
2023-02-18T09:57:01.598Z,0.73
2023-02-18T09:58:01.554Z,0.73
2023-02-18T09:59:01.522Z,0.72
2023-02-18T10:00:01.535Z,0.71
2023-02-18T10:01:01.458Z,0.72
2023-02-18T10:02:02.371Z,0.71
2023-02-18T10:03:01.429Z,0.73
2023-02-18T10:04:01.371Z,0.73
2023-02-18T10:05:01.363Z,0.72
2023-02-18T10:06:01.331Z,0.73
2023-02-18T10:07:01.320Z,0.72
2023-02-18T10:08:01.286Z,0.72
2023-02-18T10:09:01.247Z,0.74
2023-02-18T10:10:01.204Z,0.72
2023-02-18T10:11:01.180Z,0.72
2023-02-18T10:12:01.138Z,0.72
2023-02-18T10:13:01.113Z,0.74
2023-02-18T10:14:01.080Z,0.72
2023-02-18T10:15:01.041Z,0.71
2023-02-18T10:16:01.047Z,0.70
2023-02-18T10:17:01.011Z,0.70
2023-02-18T10:18:00.967Z,0.69
2023-02-18T10:19:00.922Z,0.69
2023-02-18T10:20:01.555Z,0.69
2023-02-18T10:21:00.872Z,0.70
2023-02-18T10:22:00.844Z,0.69
2023-02-18T10:23:00.809Z,0.68
2023-02-18T10:24:00.778Z,0.67
2023-02-18T10:25:00.775Z,0.68
2023-02-18T10:26:00.701Z,0.70
2023-02-18T10:27:00.680Z,0.69
2023-02-18T10:28:00.644Z,0.68
2023-02-18T10:29:00.613Z,0.67
2023-02-18T10:30:00.625Z,0.67
2023-02-18T10:31:00.661Z,0.69
2023-02-18T10:32:00.670Z,0.68
2023-02-18T10:33:00.459Z,0.67
2023-02-18T10:34:00.419Z,0.67
2023-02-18T10:35:00.548Z,0.67
2023-02-18T10:36:00.351Z,0.67
2023-02-18T10:37:00.329Z,0.68
2023-02-18T10:38:00.296Z,0.67
2023-02-18T10:39:00.247Z,0.67
2023-02-18T10:40:00.227Z,0.67
2023-02-18T10:41:00.313Z,0.68
2023-02-18T10:42:00.154Z,0.66
2023-02-18T10:43:00.111Z,0.67
2023-02-18T10:44:00.057Z,0.65
2023-02-18T10:45:00.024Z,0.65
2023-02-18T10:45:59.986Z,0.66
2023-02-18T10:46:59.966Z,0.66
2023-02-18T10:47:59.895Z,0.66
2023-02-18T10:48:59.862Z,0.65
2023-02-18T10:49:59.841Z,0.65
2023-02-18T10:50:59.794Z,0.66
2023-02-18T10:51:59.768Z,0.66
2023-02-18T10:52:59.731Z,0.66
2023-02-18T10:53:59.688Z,0.65
2023-02-18T10:54:59.660Z,0.67
2023-02-18T10:55:59.660Z,0.68
2023-02-18T10:56:59.591Z,0.67
2023-02-18T10:57:59.549Z,0.67
2023-02-18T10:58:59.507Z,0.67
2023-02-18T10:59:59.469Z,0.65
2023-02-18T11:00:59.433Z,0.68
2023-02-18T11:01:59.413Z,0.67
2023-02-18T11:02:59.372Z,0.65
2023-02-18T11:03:59.346Z,0.65
2023-02-18T11:04:59.323Z,0.67
2023-02-18T11:05:59.268Z,0.68
2023-02-18T11:06:59.237Z,0.67
2023-02-18T11:07:59.206Z,0.67
2023-02-18T11:08:59.180Z,0.67
2023-02-18T11:09:59.147Z,0.67
2023-02-18T11:10:59.108Z,0.65
2023-02-18T11:12:07.918Z,0.66
2023-02-18T11:13:00.066Z,0.66
2023-02-18T11:13:59.006Z,0.66
2023-02-18T11:14:58.980Z,0.66
2023-02-18T11:15:58.975Z,0.66
2023-02-18T11:16:58.915Z,0.67
2023-02-18T11:17:58.869Z,0.65
2023-02-18T11:18:58.836Z,0.65
2023-02-18T11:19:58.793Z,0.65
2023-02-18T11:20:58.755Z,0.66
2023-02-18T11:21:58.715Z,0.68
2023-02-18T11:22:58.683Z,0.65
2023-02-18T11:23:58.663Z,0.65
2023-02-18T11:24:58.612Z,0.65
2023-02-18T11:25:58.591Z,0.65
2023-02-18T11:26:58.544Z,0.65
2023-02-18T11:27:58.507Z,0.66
2023-02-18T11:28:58.468Z,0.63
2023-02-18T11:29:58.486Z,0.62
2023-02-18T11:30:58.422Z,0.65
2023-02-18T11:31:58.465Z,0.63
2023-02-18T11:32:58.312Z,0.62
2023-02-18T11:33:58.249Z,0.63
2023-02-18T11:34:58.214Z,0.63
2023-02-18T11:35:58.175Z,0.65
2023-02-18T11:36:58.127Z,0.64
2023-02-18T11:37:58.080Z,0.64
2023-02-18T11:38:58.049Z,0.65
2023-02-18T11:39:57.995Z,0.65
2023-02-18T11:40:57.966Z,0.65
2023-02-18T11:41:57.930Z,0.63
2023-02-18T11:42:57.887Z,0.63
2023-02-18T11:43:57.848Z,0.64
2023-02-18T11:44:57.833Z,0.64
2023-02-18T11:45:57.771Z,0.63
2023-02-18T11:46:57.769Z,0.65
2023-02-18T11:47:57.707Z,0.64
2023-02-18T11:48:57.706Z,0.62
2023-02-18T11:49:57.634Z,0.61
2023-02-18T11:50:57.601Z,0.64
2023-02-18T11:51:57.564Z,0.65
2023-02-18T11:52:57.558Z,0.62
2023-02-18T11:53:57.498Z,0.63
2023-02-18T11:54:57.466Z,0.60
2023-02-18T11:55:57.411Z,0.60
2023-02-18T11:56:57.379Z,0.62
2023-02-18T11:57:57.346Z,0.59
2023-02-18T11:58:57.316Z,0.62
2023-02-18T11:59:57.280Z,0.62
2023-02-18T12:00:57.249Z,0.64
2023-02-18T12:01:57.268Z,0.63
2023-02-18T12:02:57.171Z,0.60
2023-02-18T12:03:57.148Z,0.62
2023-02-18T12:04:57.111Z,0.61
2023-02-18T12:05:57.074Z,0.62
2023-02-18T12:06:57.046Z,0.60
2023-02-18T12:07:57.020Z,0.60
2023-02-18T12:08:56.990Z,0.61
2023-02-18T12:09:56.957Z,0.60
2023-02-18T12:10:56.935Z,0.61
2023-02-18T12:11:59.208Z,0.60
2023-02-18T12:12:56.877Z,0.62
2023-02-18T12:13:56.852Z,0.62
2023-02-18T12:14:56.847Z,0.63
2023-02-18T12:15:56.779Z,0.63
2023-02-18T12:16:56.744Z,0.63
2023-02-18T12:17:56.719Z,0.61
2023-02-18T12:18:56.722Z,0.60
2023-02-18T12:19:56.667Z,0.60
2023-02-18T12:20:56.651Z,0.60
2023-02-18T12:21:56.628Z,0.60
2023-02-18T12:22:56.593Z,0.59
2023-02-18T12:23:56.565Z,0.58
2023-02-18T12:24:56.546Z,0.57
2023-02-18T12:25:56.518Z,0.57
2023-02-18T12:26:56.494Z,0.58
2023-02-18T12:27:56.476Z,0.60
2023-02-18T12:28:56.452Z,0.58
2023-02-18T12:29:56.409Z,0.57
2023-02-18T12:30:56.420Z,0.57
2023-02-18T12:31:56.391Z,0.55
2023-02-18T12:32:56.328Z,0.56
2023-02-18T12:33:56.310Z,0.56
2023-02-18T12:34:56.272Z,0.58
2023-02-18T12:35:56.251Z,0.54
2023-02-18T12:36:56.228Z,0.57
2023-02-18T12:37:56.184Z,0.59
2023-02-18T12:38:56.166Z,0.60
2023-02-18T12:39:56.133Z,0.60
2023-02-18T12:40:56.100Z,0.60
2023-02-18T12:41:56.074Z,0.60
2023-02-18T12:42:56.044Z,0.59
2023-02-18T12:43:56.011Z,0.56
2023-02-18T12:44:55.992Z,0.57
2023-02-18T12:45:55.967Z,0.58
2023-02-18T12:46:55.937Z,0.60
2023-02-18T12:47:55.913Z,0.57
2023-02-18T12:48:55.891Z,0.60
2023-02-18T12:49:55.864Z,0.59
2023-02-18T12:50:55.843Z,0.57
2023-02-18T12:51:55.816Z,0.58
2023-02-18T12:52:55.780Z,0.61
2023-02-18T12:53:55.752Z,0.61
2023-02-18T12:54:55.724Z,0.61
2023-02-18T12:55:55.696Z,0.61
2023-02-18T12:56:55.682Z,0.62
2023-02-18T12:57:55.643Z,0.61
2023-02-18T12:58:55.631Z,0.63
2023-02-18T12:59:55.603Z,0.62
2023-02-18T13:00:55.595Z,0.63
2023-02-18T13:01:55.556Z,0.61
2023-02-18T13:02:55.578Z,0.60
2023-02-18T13:03:55.506Z,0.60
2023-02-18T13:04:55.495Z,0.60
2023-02-18T13:05:55.461Z,0.60
2023-02-18T13:06:55.442Z,0.62
2023-02-18T13:07:55.424Z,0.57
2023-02-18T13:08:55.418Z,0.59
2023-02-18T13:09:55.389Z,0.61
2023-02-18T13:10:55.367Z,0.62
2023-02-18T13:11:55.342Z,0.60
2023-02-18T13:12:55.334Z,0.60
2023-02-18T13:13:55.303Z,0.60
2023-02-18T13:14:55.301Z,0.61
2023-02-18T13:15:55.391Z,0.60
2023-02-18T13:16:55.266Z,0.61
2023-02-18T13:17:55.226Z,0.62